sensor_id;sensor_type;location;lat;lon;timestamp;P1;durP1;ratioP1;P2;durP2;ratioP2
67272;SDS011;54190;49.770;9.250;2023-05-20T00:00:07;6.00;;;4.10;;
67272;SDS011;54190;49.770;9.250;2023-05-20T00:02:33;6.30;;;3.80;;
67272;SDS011;54190;49.770;9.250;2023-05-20T00:04:59;6.60;;;3.73;;
67272;SDS011;54190;49.770;9.250;2023-05-20T00:07:25;6.00;;;3.60;;
67272;SDS011;54190;49.770;9.250;2023-05-20T00:09:50;4.90;;;4.00;;
67272;SDS011;54190;49.770;9.250;2023-05-20T00:12:16;4.70;;;3.53;;
67272;SDS011;54190;49.770;9.250;2023-05-20T00:14:42;5.93;;;4.30;;
67272;SDS011;54190;49.770;9.250;2023-05-20T00:17:07;4.70;;;3.80;;
67272;SDS011;54190;49.770;9.250;2023-05-20T00:19:33;5.00;;;3.60;;
67272;SDS011;54190;49.770;9.250;2023-05-20T00:21:59;5.97;;;3.90;;
67272;SDS011;54190;49.770;9.250;2023-05-20T00:24:25;4.90;;;4.07;;
67272;SDS011;54190;49.770;9.250;2023-05-20T00:26:54;5.30;;;3.70;;
67272;SDS011;54190;49.770;9.250;2023-05-20T00:29:20;5.40;;;4.20;;
67272;SDS011;54190;49.770;9.250;2023-05-20T00:31:47;9.40;;;4.60;;
67272;SDS011;54190;49.770;9.250;2023-05-20T00:34:12;5.93;;;3.97;;
67272;SDS011;54190;49.770;9.250;2023-05-20T00:36:38;5.20;;;4.23;;
67272;SDS011;54190;49.770;9.250;2023-05-20T00:39:04;5.63;;;3.67;;
67272;SDS011;54190;49.770;9.250;2023-05-20T00:41:29;6.53;;;4.00;;
67272;SDS011;54190;49.770;9.250;2023-05-20T00:43:56;4.80;;;3.87;;
67272;SDS011;54190;49.770;9.250;2023-05-20T00:46:22;4.73;;;3.70;;
67272;SDS011;54190;49.770;9.250;2023-05-20T00:48:49;5.40;;;4.23;;
67272;SDS011;54190;49.770;9.250;2023-05-20T00:51:15;6.73;;;3.77;;
67272;SDS011;54190;49.770;9.250;2023-05-20T00:53:41;6.57;;;4.17;;
67272;SDS011;54190;49.770;9.250;2023-05-20T00:56:07;8.33;;;4.07;;
67272;SDS011;54190;49.770;9.250;2023-05-20T00:58:34;6.10;;;4.57;;
67272;SDS011;54190;49.770;9.250;2023-05-20T01:01:01;10.50;;;3.87;;
67272;SDS011;54190;49.770;9.250;2023-05-20T01:03:27;9.07;;;4.40;;
67272;SDS011;54190;49.770;9.250;2023-05-20T01:05:53;6.20;;;3.80;;
67272;SDS011;54190;49.770;9.250;2023-05-20T01:08:19;5.33;;;4.00;;
67272;SDS011;54190;49.770;9.250;2023-05-20T01:10:46;5.93;;;4.07;;
67272;SDS011;54190;49.770;9.250;2023-05-20T01:13:18;5.57;;;4.20;;
67272;SDS011;54190;49.770;9.250;2023-05-20T01:15:47;5.30;;;4.30;;
67272;SDS011;54190;49.770;9.250;2023-05-20T01:18:15;6.37;;;4.30;;
67272;SDS011;54190;49.770;9.250;2023-05-20T01:20:42;6.50;;;4.20;;
67272;SDS011;54190;49.770;9.250;2023-05-20T01:23:12;5.67;;;4.07;;
67272;SDS011;54190;49.770;9.250;2023-05-20T01:25:40;5.90;;;4.03;;
67272;SDS011;54190;49.770;9.250;2023-05-20T01:28:06;5.30;;;4.37;;
67272;SDS011;54190;49.770;9.250;2023-05-20T01:30:34;5.30;;;4.07;;
67272;SDS011;54190;49.770;9.250;2023-05-20T01:33:06;5.70;;;4.40;;
67272;SDS011;54190;49.770;9.250;2023-05-20T01:35:36;8.93;;;5.00;;
67272;SDS011;54190;49.770;9.250;2023-05-20T01:38:05;6.10;;;4.80;;
67272;SDS011;54190;49.770;9.250;2023-05-20T01:40:31;6.40;;;4.40;;
67272;SDS011;54190;49.770;9.250;2023-05-20T01:42:59;6.13;;;4.47;;
67272;SDS011;54190;49.770;9.250;2023-05-20T01:45:29;6.90;;;4.70;;
67272;SDS011;54190;49.770;9.250;2023-05-20T01:47:55;6.70;;;4.67;;
67272;SDS011;54190;49.770;9.250;2023-05-20T01:50:21;8.70;;;4.20;;
67272;SDS011;54190;49.770;9.250;2023-05-20T01:52:46;7.67;;;4.77;;
67272;SDS011;54190;49.770;9.250;2023-05-20T01:55:12;5.43;;;4.07;;
67272;SDS011;54190;49.770;9.250;2023-05-20T01:57:38;6.60;;;4.27;;
67272;SDS011;54190;49.770;9.250;2023-05-20T02:00:03;5.13;;;3.90;;
67272;SDS011;54190;49.770;9.250;2023-05-20T02:02:38;7.50;;;4.40;;
67272;SDS011;54190;49.770;9.250;2023-05-20T02:05:04;6.10;;;5.00;;
67272;SDS011;54190;49.770;9.250;2023-05-20T02:07:30;7.37;;;4.50;;
67272;SDS011;54190;49.770;9.250;2023-05-20T02:09:55;6.63;;;4.60;;
67272;SDS011;54190;49.770;9.250;2023-05-20T02:12:21;7.80;;;5.30;;
67272;SDS011;54190;49.770;9.250;2023-05-20T02:14:47;6.83;;;5.20;;
67272;SDS011;54190;49.770;9.250;2023-05-20T02:17:15;5.77;;;4.73;;
67272;SDS011;54190;49.770;9.250;2023-05-20T02:19:42;7.53;;;4.60;;
67272;SDS011;54190;49.770;9.250;2023-05-20T02:22:08;5.90;;;4.73;;
67272;SDS011;54190;49.770;9.250;2023-05-20T02:24:34;5.83;;;4.70;;
67272;SDS011;54190;49.770;9.250;2023-05-20T02:27:00;6.20;;;5.10;;
67272;SDS011;54190;49.770;9.250;2023-05-20T02:29:27;6.47;;;4.67;;
67272;SDS011;54190;49.770;9.250;2023-05-20T02:31:52;6.73;;;4.87;;
67272;SDS011;54190;49.770;9.250;2023-05-20T02:34:19;5.70;;;4.63;;
67272;SDS011;54190;49.770;9.250;2023-05-20T02:36:45;6.50;;;5.17;;
67272;SDS011;54190;49.770;9.250;2023-05-20T02:39:11;6.27;;;4.90;;
67272;SDS011;54190;49.770;9.250;2023-05-20T02:41:37;8.43;;;5.60;;
67272;SDS011;54190;49.770;9.250;2023-05-20T02:44:03;7.10;;;5.90;;
67272;SDS011;54190;49.770;9.250;2023-05-20T02:46:29;6.37;;;5.07;;
67272;SDS011;54190;49.770;9.250;2023-05-20T02:48:55;6.17;;;4.93;;
67272;SDS011;54190;49.770;9.250;2023-05-20T02:51:22;6.90;;;5.17;;
67272;SDS011;54190;49.770;9.250;2023-05-20T02:53:48;7.07;;;5.70;;
67272;SDS011;54190;49.770;9.250;2023-05-20T02:56:14;5.83;;;5.20;;
67272;SDS011;54190;49.770;9.250;2023-05-20T02:58:40;8.60;;;5.77;;
67272;SDS011;54190;49.770;9.250;2023-05-20T03:01:06;6.73;;;4.73;;
67272;SDS011;54190;49.770;9.250;2023-05-20T03:03:32;6.57;;;5.37;;
67272;SDS011;54190;49.770;9.250;2023-05-20T03:05:57;6.50;;;5.30;;
67272;SDS011;54190;49.770;9.250;2023-05-20T03:08:23;5.47;;;4.90;;
67272;SDS011;54190;49.770;9.250;2023-05-20T03:10:49;6.00;;;4.90;;
67272;SDS011;54190;49.770;9.250;2023-05-20T03:13:15;8.63;;;4.93;;
67272;SDS011;54190;49.770;9.250;2023-05-20T03:15:41;6.20;;;4.43;;
67272;SDS011;54190;49.770;9.250;2023-05-20T03:18:09;8.53;;;5.00;;
67272;SDS011;54190;49.770;9.250;2023-05-20T03:20:36;5.37;;;4.47;;
67272;SDS011;54190;49.770;9.250;2023-05-20T03:23:04;8.07;;;5.10;;
67272;SDS011;54190;49.770;9.250;2023-05-20T03:25:30;6.37;;;5.23;;
67272;SDS011;54190;49.770;9.250;2023-05-20T03:27:56;5.80;;;5.03;;
67272;SDS011;54190;49.770;9.250;2023-05-20T03:30:28;7.77;;;5.90;;
67272;SDS011;54190;49.770;9.250;2023-05-20T03:32:55;8.27;;;5.80;;
67272;SDS011;54190;49.770;9.250;2023-05-20T03:35:24;7.27;;;5.40;;
67272;SDS011;54190;49.770;9.250;2023-05-20T03:37:51;7.27;;;5.60;;
67272;SDS011;54190;49.770;9.250;2023-05-20T03:40:18;6.30;;;5.40;;
67272;SDS011;54190;49.770;9.250;2023-05-20T03:42:47;9.13;;;5.90;;
67272;SDS011;54190;49.770;9.250;2023-05-20T03:45:15;7.13;;;5.30;;
67272;SDS011;54190;49.770;9.250;2023-05-20T03:47:51;7.17;;;5.67;;
67272;SDS011;54190;49.770;9.250;2023-05-20T03:50:17;7.30;;;5.70;;
67272;SDS011;54190;49.770;9.250;2023-05-20T03:52:43;8.17;;;5.80;;
67272;SDS011;54190;49.770;9.250;2023-05-20T03:55:09;8.40;;;6.13;;
67272;SDS011;54190;49.770;9.250;2023-05-20T03:57:34;11.07;;;5.67;;
67272;SDS011;54190;49.770;9.250;2023-05-20T04:00:01;6.70;;;5.80;;
67272;SDS011;54190;49.770;9.250;2023-05-20T04:02:30;6.90;;;5.83;;
67272;SDS011;54190;49.770;9.250;2023-05-20T04:04:56;7.97;;;6.43;;
67272;SDS011;54190;49.770;9.250;2023-05-20T04:07:22;9.10;;;6.57;;
67272;SDS011;54190;49.770;9.250;2023-05-20T04:09:48;9.43;;;6.63;;
67272;SDS011;54190;49.770;9.250;2023-05-20T04:12:13;7.23;;;6.30;;
67272;SDS011;54190;49.770;9.250;2023-05-20T04:14:39;9.60;;;5.83;;
67272;SDS011;54190;49.770;9.250;2023-05-20T04:17:06;7.57;;;5.60;;
67272;SDS011;54190;49.770;9.250;2023-05-20T04:19:32;9.90;;;6.70;;
67272;SDS011;54190;49.770;9.250;2023-05-20T04:21:58;8.03;;;6.10;;
67272;SDS011;54190;49.770;9.250;2023-05-20T04:24:25;8.07;;;5.73;;
67272;SDS011;54190;49.770;9.250;2023-05-20T04:26:51;7.13;;;5.70;;
67272;SDS011;54190;49.770;9.250;2023-05-20T04:29:17;8.40;;;6.20;;
67272;SDS011;54190;49.770;9.250;2023-05-20T04:31:46;8.93;;;6.20;;
67272;SDS011;54190;49.770;9.250;2023-05-20T04:34:13;7.47;;;5.70;;
67272;SDS011;54190;49.770;9.250;2023-05-20T04:36:39;6.77;;;5.80;;
67272;SDS011;54190;49.770;9.250;2023-05-20T04:39:05;7.43;;;6.30;;
67272;SDS011;54190;49.770;9.250;2023-05-20T04:41:32;9.83;;;6.30;;
67272;SDS011;54190;49.770;9.250;2023-05-20T04:43:57;8.17;;;5.80;;
67272;SDS011;54190;49.770;9.250;2023-05-20T04:46:26;8.60;;;6.60;;
67272;SDS011;54190;49.770;9.250;2023-05-20T04:48:52;7.07;;;6.13;;
67272;SDS011;54190;49.770;9.250;2023-05-20T04:51:18;7.63;;;6.60;;
67272;SDS011;54190;49.770;9.250;2023-05-20T04:53:44;10.83;;;6.30;;
67272;SDS011;54190;49.770;9.250;2023-05-20T04:56:10;8.87;;;6.50;;
67272;SDS011;54190;49.770;9.250;2023-05-20T04:58:36;9.37;;;6.63;;
67272;SDS011;54190;49.770;9.250;2023-05-20T05:01:02;8.17;;;5.77;;
67272;SDS011;54190;49.770;9.250;2023-05-20T05:03:28;7.73;;;6.10;;
67272;SDS011;54190;49.770;9.250;2023-05-20T05:05:55;8.37;;;6.30;;
67272;SDS011;54190;49.770;9.250;2023-05-20T05:08:22;7.47;;;5.70;;
67272;SDS011;54190;49.770;9.250;2023-05-20T05:10:49;8.40;;;6.30;;
67272;SDS011;54190;49.770;9.250;2023-05-20T05:13:15;7.80;;;6.20;;
67272;SDS011;54190;49.770;9.250;2023-05-20T05:15:41;9.63;;;6.53;;
67272;SDS011;54190;49.770;9.250;2023-05-20T05:18:07;7.23;;;6.30;;
67272;SDS011;54190;49.770;9.250;2023-05-20T05:20:33;7.27;;;5.83;;
67272;SDS011;54190;49.770;9.250;2023-05-20T05:22:59;8.53;;;5.70;;
67272;SDS011;54190;49.770;9.250;2023-05-20T05:25:25;11.30;;;6.47;;
67272;SDS011;54190;49.770;9.250;2023-05-20T05:27:51;8.40;;;5.93;;
67272;SDS011;54190;49.770;9.250;2023-05-20T05:30:19;9.00;;;6.77;;
67272;SDS011;54190;49.770;9.250;2023-05-20T05:32:46;7.43;;;6.17;;
67272;SDS011;54190;49.770;9.250;2023-05-20T05:35:11;9.97;;;6.67;;
67272;SDS011;54190;49.770;9.250;2023-05-20T05:37:38;9.40;;;6.47;;
67272;SDS011;54190;49.770;9.250;2023-05-20T05:40:04;10.10;;;6.63;;
67272;SDS011;54190;49.770;9.250;2023-05-20T05:42:30;6.90;;;5.93;;
67272;SDS011;54190;49.770;9.250;2023-05-20T05:44:56;12.53;;;6.77;;
67272;SDS011;54190;49.770;9.250;2023-05-20T05:47:22;8.37;;;6.10;;
67272;SDS011;54190;49.770;9.250;2023-05-20T05:49:47;10.03;;;6.90;;
67272;SDS011;54190;49.770;9.250;2023-05-20T05:52:13;8.80;;;6.37;;
67272;SDS011;54190;49.770;9.250;2023-05-20T05:54:40;9.33;;;6.67;;
67272;SDS011;54190;49.770;9.250;2023-05-20T05:57:06;7.27;;;6.00;;
67272;SDS011;54190;49.770;9.250;2023-05-20T05:59:34;8.90;;;6.67;;
67272;SDS011;54190;49.770;9.250;2023-05-20T06:02:00;8.20;;;6.73;;
67272;SDS011;54190;49.770;9.250;2023-05-20T06:04:25;8.23;;;6.90;;
67272;SDS011;54190;49.770;9.250;2023-05-20T06:06:54;8.60;;;6.87;;
67272;SDS011;54190;49.770;9.250;2023-05-20T06:09:20;8.83;;;7.13;;
67272;SDS011;54190;49.770;9.250;2023-05-20T06:11:46;9.90;;;7.10;;
67272;SDS011;54190;49.770;9.250;2023-05-20T06:14:11;9.20;;;6.77;;
67272;SDS011;54190;49.770;9.250;2023-05-20T06:16:37;11.00;;;7.40;;
67272;SDS011;54190;49.770;9.250;2023-05-20T06:19:03;13.33;;;7.57;;
67272;SDS011;54190;49.770;9.250;2023-05-20T06:21:30;7.87;;;6.50;;
67272;SDS011;54190;49.770;9.250;2023-05-20T06:23:56;11.47;;;6.87;;
67272;SDS011;54190;49.770;9.250;2023-05-20T06:26:22;9.57;;;6.80;;
67272;SDS011;54190;49.770;9.250;2023-05-20T06:28:48;46.37;;;7.50;;
67272;SDS011;54190;49.770;9.250;2023-05-20T06:31:13;14.23;;;6.00;;
67272;SDS011;54190;49.770;9.250;2023-05-20T06:33:39;11.30;;;7.40;;
67272;SDS011;54190;49.770;9.250;2023-05-20T06:36:08;8.73;;;7.30;;
67272;SDS011;54190;49.770;9.250;2023-05-20T06:38:34;11.80;;;7.37;;
67272;SDS011;54190;49.770;9.250;2023-05-20T06:40:59;9.63;;;7.07;;
67272;SDS011;54190;49.770;9.250;2023-05-20T06:43:26;8.53;;;7.47;;
67272;SDS011;54190;49.770;9.250;2023-05-20T06:46:13;8.10;;;6.80;;
67272;SDS011;54190;49.770;9.250;2023-05-20T06:48:51;9.37;;;7.67;;
67272;SDS011;54190;49.770;9.250;2023-05-20T06:51:17;12.90;;;8.40;;
67272;SDS011;54190;49.770;9.250;2023-05-20T06:53:45;8.83;;;7.07;;
67272;SDS011;54190;49.770;9.250;2023-05-20T06:56:11;8.97;;;7.73;;
67272;SDS011;54190;49.770;9.250;2023-05-20T06:58:36;7.90;;;7.10;;
67272;SDS011;54190;49.770;9.250;2023-05-20T07:01:02;9.70;;;7.53;;
67272;SDS011;54190;49.770;9.250;2023-05-20T07:03:29;11.07;;;7.40;;
67272;SDS011;54190;49.770;9.250;2023-05-20T07:05:55;8.57;;;7.50;;
67272;SDS011;54190;49.770;9.250;2023-05-20T07:08:21;14.30;;;7.67;;
67272;SDS011;54190;49.770;9.250;2023-05-20T07:10:47;10.60;;;7.90;;
67272;SDS011;54190;49.770;9.250;2023-05-20T07:13:16;9.20;;;7.97;;
67272;SDS011;54190;49.770;9.250;2023-05-20T07:15:45;9.00;;;7.23;;
67272;SDS011;54190;49.770;9.250;2023-05-20T07:18:11;9.13;;;8.10;;
67272;SDS011;54190;49.770;9.250;2023-05-20T07:20:37;9.23;;;7.93;;
67272;SDS011;54190;49.770;9.250;2023-05-20T07:23:08;11.47;;;8.00;;
67272;SDS011;54190;49.770;9.250;2023-05-20T07:25:42;9.97;;;8.30;;
67272;SDS011;54190;49.770;9.250;2023-05-20T07:28:08;9.67;;;7.63;;
67272;SDS011;54190;49.770;9.250;2023-05-20T07:30:33;10.17;;;8.60;;
67272;SDS011;54190;49.770;9.250;2023-05-20T07:33:18;9.97;;;7.70;;
67272;SDS011;54190;49.770;9.250;2023-05-20T07:35:44;11.40;;;8.13;;
67272;SDS011;54190;49.770;9.250;2023-05-20T07:38:10;21.50;;;9.50;;
67272;SDS011;54190;49.770;9.250;2023-05-20T07:40:37;9.03;;;8.10;;
67272;SDS011;54190;49.770;9.250;2023-05-20T07:43:05;9.10;;;7.47;;
67272;SDS011;54190;49.770;9.250;2023-05-20T07:45:33;9.27;;;8.30;;
67272;SDS011;54190;49.770;9.250;2023-05-20T07:48:01;10.67;;;7.87;;
67272;SDS011;54190;49.770;9.250;2023-05-20T07:50:27;10.40;;;8.70;;
67272;SDS011;54190;49.770;9.250;2023-05-20T07:52:53;9.27;;;8.37;;
67272;SDS011;54190;49.770;9.250;2023-05-20T07:55:18;9.77;;;8.50;;
67272;SDS011;54190;49.770;9.250;2023-05-20T07:57:44;10.03;;;8.10;;
67272;SDS011;54190;49.770;9.250;2023-05-20T08:00:10;10.90;;;8.13;;
67272;SDS011;54190;49.770;9.250;2023-05-20T08:02:42;11.60;;;9.13;;
67272;SDS011;54190;49.770;9.250;2023-05-20T08:05:09;10.43;;;8.23;;
67272;SDS011;54190;49.770;9.250;2023-05-20T08:07:35;15.33;;;9.00;;
67272;SDS011;54190;49.770;9.250;2023-05-20T08:10:00;10.10;;;8.23;;
67272;SDS011;54190;49.770;9.250;2023-05-20T08:12:26;11.00;;;8.40;;
67272;SDS011;54190;49.770;9.250;2023-05-20T08:14:52;12.30;;;8.93;;
67272;SDS011;54190;49.770;9.250;2023-05-20T08:17:18;10.00;;;8.73;;
67272;SDS011;54190;49.770;9.250;2023-05-20T08:19:44;9.97;;;8.57;;
67272;SDS011;54190;49.770;9.250;2023-05-20T08:22:12;9.03;;;8.13;;
67272;SDS011;54190;49.770;9.250;2023-05-20T08:24:38;9.67;;;8.23;;
67272;SDS011;54190;49.770;9.250;2023-05-20T08:27:03;9.83;;;8.83;;
67272;SDS011;54190;49.770;9.250;2023-05-20T08:29:30;10.73;;;8.60;;
67272;SDS011;54190;49.770;9.250;2023-05-20T08:31:57;10.77;;;9.30;;
67272;SDS011;54190;49.770;9.250;2023-05-20T08:34:24;10.37;;;8.27;;
67272;SDS011;54190;49.770;9.250;2023-05-20T08:36:50;10.43;;;7.90;;
67272;SDS011;54190;49.770;9.250;2023-05-20T08:39:16;9.83;;;8.77;;
67272;SDS011;54190;49.770;9.250;2023-05-20T08:41:44;11.47;;;8.43;;
67272;SDS011;54190;49.770;9.250;2023-05-20T08:44:11;10.73;;;8.73;;
67272;SDS011;54190;49.770;9.250;2023-05-20T08:46:38;12.30;;;9.07;;
67272;SDS011;54190;49.770;9.250;2023-05-20T08:49:05;11.30;;;8.77;;
67272;SDS011;54190;49.770;9.250;2023-05-20T08:51:31;9.30;;;7.83;;
67272;SDS011;54190;49.770;9.250;2023-05-20T08:54:00;12.57;;;8.70;;
67272;SDS011;54190;49.770;9.250;2023-05-20T08:56:27;13.90;;;9.60;;
67272;SDS011;54190;49.770;9.250;2023-05-20T08:58:53;29.90;;;10.90;;
67272;SDS011;54190;49.770;9.250;2023-05-20T09:01:22;15.17;;;8.77;;
67272;SDS011;54190;49.770;9.250;2023-05-20T09:03:49;29.03;;;10.63;;
67272;SDS011;54190;49.770;9.250;2023-05-20T09:06:16;10.57;;;8.20;;
67272;SDS011;54190;49.770;9.250;2023-05-20T09:08:44;9.20;;;8.23;;
67272;SDS011;54190;49.770;9.250;2023-05-20T09:11:12;10.10;;;8.73;;
67272;SDS011;54190;49.770;9.250;2023-05-20T09:13:38;9.50;;;8.40;;
67272;SDS011;54190;49.770;9.250;2023-05-20T09:16:03;13.70;;;9.10;;
67272;SDS011;54190;49.770;9.250;2023-05-20T09:18:29;13.10;;;9.00;;
67272;SDS011;54190;49.770;9.250;2023-05-20T09:20:55;9.60;;;8.60;;
67272;SDS011;54190;49.770;9.250;2023-05-20T09:23:21;10.07;;;7.97;;
67272;SDS011;54190;49.770;9.250;2023-05-20T09:25:49;12.07;;;9.07;;
67272;SDS011;54190;49.770;9.250;2023-05-20T09:28:16;11.70;;;9.00;;
67272;SDS011;54190;49.770;9.250;2023-05-20T09:30:44;11.70;;;8.90;;
67272;SDS011;54190;49.770;9.250;2023-05-20T09:33:12;9.50;;;8.10;;
67272;SDS011;54190;49.770;9.250;2023-05-20T09:35:38;12.70;;;8.93;;
67272;SDS011;54190;49.770;9.250;2023-05-20T09:38:04;12.00;;;8.67;;
67272;SDS011;54190;49.770;9.250;2023-05-20T09:40:33;10.80;;;7.33;;
67272;SDS011;54190;49.770;9.250;2023-05-20T09:43:05;9.47;;;8.47;;
67272;SDS011;54190;49.770;9.250;2023-05-20T09:45:32;10.67;;;8.77;;
67272;SDS011;54190;49.770;9.250;2023-05-20T09:47:58;9.90;;;8.90;;
67272;SDS011;54190;49.770;9.250;2023-05-20T09:50:25;9.90;;;8.70;;
67272;SDS011;54190;49.770;9.250;2023-05-20T09:52:53;9.63;;;8.00;;
67272;SDS011;54190;49.770;9.250;2023-05-20T09:55:20;10.23;;;8.90;;
67272;SDS011;54190;49.770;9.250;2023-05-20T09:57:47;10.97;;;8.80;;
67272;SDS011;54190;49.770;9.250;2023-05-20T10:00:13;9.67;;;8.37;;
67272;SDS011;54190;49.770;9.250;2023-05-20T10:02:48;9.87;;;8.70;;
67272;SDS011;54190;49.770;9.250;2023-05-20T10:05:22;8.60;;;7.63;;
67272;SDS011;54190;49.770;9.250;2023-05-20T10:07:56;10.57;;;8.27;;
67272;SDS011;54190;49.770;9.250;2023-05-20T10:10:52;10.10;;;8.50;;
67272;SDS011;54190;49.770;9.250;2023-05-20T10:16:49;12.33;;;8.03;;
67272;SDS011;54190;49.770;9.250;2023-05-20T10:21:55;9.70;;;8.50;;
67272;SDS011;54190;49.770;9.250;2023-05-20T10:24:28;9.83;;;8.10;;
67272;SDS011;54190;49.770;9.250;2023-05-20T10:26:57;9.10;;;8.20;;
67272;SDS011;54190;49.770;9.250;2023-05-20T10:29:25;10.73;;;8.50;;
67272;SDS011;54190;49.770;9.250;2023-05-20T10:31:51;11.77;;;9.30;;
67272;SDS011;54190;49.770;9.250;2023-05-20T10:34:18;10.13;;;9.03;;
67272;SDS011;54190;49.770;9.250;2023-05-20T10:39:24;9.63;;;8.57;;
67272;SDS011;54190;49.770;9.250;2023-05-20T10:41:52;8.90;;;8.00;;
67272;SDS011;54190;49.770;9.250;2023-05-20T10:44:38;9.60;;;8.20;;
67272;SDS011;54190;49.770;9.250;2023-05-20T10:47:05;10.57;;;8.43;;
67272;SDS011;54190;49.770;9.250;2023-05-20T10:49:34;12.10;;;8.27;;
67272;SDS011;54190;49.770;9.250;2023-05-20T10:52:00;9.13;;;7.80;;
67272;SDS011;54190;49.770;9.250;2023-05-20T10:54:26;9.87;;;8.17;;
67272;SDS011;54190;49.770;9.250;2023-05-20T10:56:53;9.80;;;8.60;;
67272;SDS011;54190;49.770;9.250;2023-05-20T10:59:20;14.60;;;8.47;;
67272;SDS011;54190;49.770;9.250;2023-05-20T11:01:45;9.53;;;7.80;;
67272;SDS011;54190;49.770;9.250;2023-05-20T11:04:12;11.07;;;7.50;;
67272;SDS011;54190;49.770;9.250;2023-05-20T11:06:48;9.33;;;7.93;;
67272;SDS011;54190;49.770;9.250;2023-05-20T11:09:15;9.17;;;8.20;;
67272;SDS011;54190;49.770;9.250;2023-05-20T11:11:40;9.43;;;8.23;;
67272;SDS011;54190;49.770;9.250;2023-05-20T11:14:06;9.50;;;8.50;;
67272;SDS011;54190;49.770;9.250;2023-05-20T11:16:38;9.73;;;8.73;;
67272;SDS011;54190;49.770;9.250;2023-05-20T11:19:05;9.90;;;8.53;;
67272;SDS011;54190;49.770;9.250;2023-05-20T11:21:44;9.73;;;7.87;;
67272;SDS011;54190;49.770;9.250;2023-05-20T11:24:10;11.23;;;8.20;;
67272;SDS011;54190;49.770;9.250;2023-05-20T11:26:36;11.57;;;8.80;;
67272;SDS011;54190;49.770;9.250;2023-05-20T11:29:02;8.90;;;8.00;;
67272;SDS011;54190;49.770;9.250;2023-05-20T11:31:29;9.10;;;8.17;;
67272;SDS011;54190;49.770;9.250;2023-05-20T11:33:56;9.30;;;8.30;;
67272;SDS011;54190;49.770;9.250;2023-05-20T11:36:25;9.10;;;7.77;;
67272;SDS011;54190;49.770;9.250;2023-05-20T11:38:53;9.37;;;8.30;;
67272;SDS011;54190;49.770;9.250;2023-05-20T11:41:24;9.50;;;7.93;;
67272;SDS011;54190;49.770;9.250;2023-05-20T11:43:55;10.60;;;8.73;;
67272;SDS011;54190;49.770;9.250;2023-05-20T11:46:22;9.40;;;8.50;;
67272;SDS011;54190;49.770;9.250;2023-05-20T11:48:52;9.80;;;8.43;;
67272;SDS011;54190;49.770;9.250;2023-05-20T11:51:21;9.40;;;8.40;;
67272;SDS011;54190;49.770;9.250;2023-05-20T11:54:03;10.17;;;8.90;;
67272;SDS011;54190;49.770;9.250;2023-05-20T11:56:32;12.57;;;8.80;;
67272;SDS011;54190;49.770;9.250;2023-05-20T11:58:59;11.20;;;8.33;;
67272;SDS011;54190;49.770;9.250;2023-05-20T12:01:25;9.43;;;8.53;;
67272;SDS011;54190;49.770;9.250;2023-05-20T12:03:53;12.67;;;8.77;;
67272;SDS011;54190;49.770;9.250;2023-05-20T12:06:19;9.50;;;8.50;;
67272;SDS011;54190;49.770;9.250;2023-05-20T12:08:45;9.00;;;8.13;;
67272;SDS011;54190;49.770;9.250;2023-05-20T12:11:11;11.00;;;8.00;;
67272;SDS011;54190;49.770;9.250;2023-05-20T12:13:38;9.00;;;7.67;;
67272;SDS011;54190;49.770;9.250;2023-05-20T12:16:04;9.87;;;7.70;;
67272;SDS011;54190;49.770;9.250;2023-05-20T12:18:30;10.33;;;9.00;;
67272;SDS011;54190;49.770;9.250;2023-05-20T12:20:57;9.37;;;8.37;;
67272;SDS011;54190;49.770;9.250;2023-05-20T12:23:23;14.80;;;7.97;;
67272;SDS011;54190;49.770;9.250;2023-05-20T12:25:49;10.33;;;8.97;;
67272;SDS011;54190;49.770;9.250;2023-05-20T12:28:15;12.50;;;7.87;;
67272;SDS011;54190;49.770;9.250;2023-05-20T12:30:41;8.50;;;7.70;;
67272;SDS011;54190;49.770;9.250;2023-05-20T12:33:07;9.67;;;8.77;;
67272;SDS011;54190;49.770;9.250;2023-05-20T12:35:40;8.97;;;8.03;;
67272;SDS011;54190;49.770;9.250;2023-05-20T12:38:07;9.00;;;8.13;;
67272;SDS011;54190;49.770;9.250;2023-05-20T12:40:33;8.90;;;8.00;;
67272;SDS011;54190;49.770;9.250;2023-05-20T12:43:03;9.17;;;8.27;;
67272;SDS011;54190;49.770;9.250;2023-05-20T12:45:29;9.33;;;8.33;;
67272;SDS011;54190;49.770;9.250;2023-05-20T12:47:55;10.43;;;9.33;;
67272;SDS011;54190;49.770;9.250;2023-05-20T12:50:22;9.10;;;8.03;;
67272;SDS011;54190;49.770;9.250;2023-05-20T12:52:48;10.00;;;8.17;;
67272;SDS011;54190;49.770;9.250;2023-05-20T12:55:14;9.40;;;8.40;;
67272;SDS011;54190;49.770;9.250;2023-05-20T12:57:40;14.27;;;8.37;;
67272;SDS011;54190;49.770;9.250;2023-05-20T13:00:10;10.23;;;8.80;;
67272;SDS011;54190;49.770;9.250;2023-05-20T13:02:37;8.97;;;8.07;;
67272;SDS011;54190;49.770;9.250;2023-05-20T13:05:04;9.00;;;7.80;;
67272;SDS011;54190;49.770;9.250;2023-05-20T13:07:30;12.30;;;8.83;;
67272;SDS011;54190;49.770;9.250;2023-05-20T13:09:57;10.17;;;9.03;;
67272;SDS011;54190;49.770;9.250;2023-05-20T13:12:23;13.90;;;9.87;;
67272;SDS011;54190;49.770;9.250;2023-05-20T13:14:49;10.87;;;8.73;;
67272;SDS011;54190;49.770;9.250;2023-05-20T13:17:14;10.80;;;8.90;;
67272;SDS011;54190;49.770;9.250;2023-05-20T13:19:40;10.73;;;9.40;;
67272;SDS011;54190;49.770;9.250;2023-05-20T13:22:06;11.33;;;8.60;;
67272;SDS011;54190;49.770;9.250;2023-05-20T13:24:33;12.83;;;9.10;;
67272;SDS011;54190;49.770;9.250;2023-05-20T13:26:59;11.40;;;9.93;;
67272;SDS011;54190;49.770;9.250;2023-05-20T13:29:25;10.57;;;9.47;;
67272;SDS011;54190;49.770;9.250;2023-05-20T13:31:51;12.57;;;8.50;;
67272;SDS011;54190;49.770;9.250;2023-05-20T13:34:17;9.93;;;8.73;;
67272;SDS011;54190;49.770;9.250;2023-05-20T13:36:43;10.57;;;9.43;;
67272;SDS011;54190;49.770;9.250;2023-05-20T13:39:09;11.63;;;9.30;;
67272;SDS011;54190;49.770;9.250;2023-05-20T13:41:35;10.33;;;8.97;;
67272;SDS011;54190;49.770;9.250;2023-05-20T13:44:01;15.90;;;10.00;;
67272;SDS011;54190;49.770;9.250;2023-05-20T13:46:27;12.13;;;9.50;;
67272;SDS011;54190;49.770;9.250;2023-05-20T13:48:52;11.60;;;8.90;;
67272;SDS011;54190;49.770;9.250;2023-05-20T13:51:18;10.30;;;9.13;;
67272;SDS011;54190;49.770;9.250;2023-05-20T13:53:44;12.40;;;8.90;;
67272;SDS011;54190;49.770;9.250;2023-05-20T13:56:09;10.00;;;9.00;;
67272;SDS011;54190;49.770;9.250;2023-05-20T13:58:35;11.03;;;8.60;;
67272;SDS011;54190;49.770;9.250;2023-05-20T14:01:02;11.10;;;9.57;;
67272;SDS011;54190;49.770;9.250;2023-05-20T14:03:29;10.40;;;9.30;;
67272;SDS011;54190;49.770;9.250;2023-05-20T14:05:55;11.50;;;9.10;;
67272;SDS011;54190;49.770;9.250;2023-05-20T14:08:21;10.00;;;7.93;;
67272;SDS011;54190;49.770;9.250;2023-05-20T14:10:47;9.53;;;8.53;;
67272;SDS011;54190;49.770;9.250;2023-05-20T14:13:13;9.73;;;8.73;;
67272;SDS011;54190;49.770;9.250;2023-05-20T14:15:39;10.30;;;9.20;;
67272;SDS011;54190;49.770;9.250;2023-05-20T14:18:05;9.90;;;8.83;;
67272;SDS011;54190;49.770;9.250;2023-05-20T14:20:30;9.73;;;8.73;;
67272;SDS011;54190;49.770;9.250;2023-05-20T14:22:56;12.97;;;8.73;;
67272;SDS011;54190;49.770;9.250;2023-05-20T14:25:22;11.97;;;10.10;;
67272;SDS011;54190;49.770;9.250;2023-05-20T14:27:48;10.60;;;9.50;;
67272;SDS011;54190;49.770;9.250;2023-05-20T14:30:14;11.53;;;9.10;;
67272;SDS011;54190;49.770;9.250;2023-05-20T14:32:40;10.77;;;9.60;;
67272;SDS011;54190;49.770;9.250;2023-05-20T14:35:05;11.50;;;9.40;;
67272;SDS011;54190;49.770;9.250;2023-05-20T14:37:31;11.90;;;9.43;;
67272;SDS011;54190;49.770;9.250;2023-05-20T14:39:57;11.60;;;9.97;;
67272;SDS011;54190;49.770;9.250;2023-05-20T14:42:23;11.97;;;9.37;;
67272;SDS011;54190;49.770;9.250;2023-05-20T14:44:48;10.13;;;9.13;;
67272;SDS011;54190;49.770;9.250;2023-05-20T14:47:14;10.50;;;9.37;;
67272;SDS011;54190;49.770;9.250;2023-05-20T14:49:43;12.10;;;9.20;;